Latest Weather Observations for Neptune Island

IDS60801

Issued at 6:31 pm CST Sunday 5 July 2015 (issued every 30 minutes, with the page automatically refreshed every 10 minutes)

About weather observations | Map of weather stations | Latest weather observations for SA | Other Formats
Station Details ID: 018115 Name: NEPTUNE ISLAND Lat: -35.34 Lon: 136.12 Height: 32.0 m
Data from the previous 72 hours. | See also: Recent months at Neptune Island
Date/Time
CST
Temp
°C
App
Temp
°C
Dew
Point
Rel
Hum
%
Delta-T
°C
Wind Press
QNH
hPa
Press
MSL
hPa
Rain
since 9 am
mm
Dir
 
Spd
km/h
Gust
km/h
Spd
kts
Gust
kts
05/06:30pm 13.5 6.1 11.2 86 1.2 W 41 52 22 28 1014.9 1014.9 0.2
05/06:18pm 14.8 8.7 11.8 82 1.6 WNW 35 41 19 22 1014.6 1014.6 0.0
05/06:00pm 15.4 8.9 12.9 85 1.4 NW 39 46 21 25 1014.3 1014.3 0.0
05/05:30pm 15.4 8.1 12.7 84 1.5 NW 43 50 23 27 1014.1 1014.1 0.0
05/05:00pm 15.4 7.8 12.5 83 1.6 NW 44 52 24 28 1014.0 1014.0 0.0
05/04:30pm 15.5 8.1 12.3 81 1.8 NW 43 52 23 28 1014.0 1014.0 0.0
05/04:00pm 15.6 8.1 12.2 80 1.9 NW 43 52 23 28 1014.1 1014.1 0.0
05/03:30pm 15.5 7.7 11.7 78 2.1 NW 44 52 24 28 1014.1 1014.1 0.0
05/03:00pm 15.5 7.8 11.5 77 2.2 NW 43 50 23 27 1014.2 1014.2 0.0
05/02:30pm 16.3 9.7 11.5 73 2.6 NW 37 46 20 25 1014.5 1014.5 0.0
05/02:00pm 16.3 8.9 9.9 66 3.4 NNW 39 46 21 25 1014.7 1014.7 0.0
05/01:30pm 16.1 9.3 10.6 70 2.9 NNW 37 43 20 23 1014.9 1014.9 0.0
05/01:00pm 15.8 7.7 10.1 69 3.0 NNW 43 52 23 28 1015.2 1015.2 0.0
05/12:30pm 15.7 8.0 10.0 69 3.0 NNW 41 46 22 25 1015.8 1015.7 0.0
05/12:00pm 15.7 8.6 9.4 66 3.3 NNW 37 44 20 24 1016.1 1016.0 0.0
05/11:30am 15.2 7.4 9.8 70 2.8 NNW 41 50 22 27 1016.6 1016.6 0.0
05/11:00am 15.1 7.8 10.3 73 2.5 NNW 39 46 21 25 1016.9 1016.9 0.0
05/10:30am 14.6 6.3 9.4 71 2.7 NNW 43 48 23 26 1017.0 1017.0 0.0
05/10:00am 14.9 7.2 10.1 73 2.5 NNW 41 46 22 25 1017.1 1017.1 0.0
05/09:30am 14.7 7.0 10.1 74 2.4 NNW 41 48 22 26 1017.1 1017.1 0.0
05/09:00am 14.5 6.8 10.3 76 2.2 NNW 41 48 22 26 1017.1 1017.1 0.0
05/08:30am 14.2 6.5 10.2 77 2.1 NNW 41 48 22 26 1017.1 1017.1 0.0
05/08:00am 14.1 6.3 9.7 75 2.3 NNW 41 48 22 26 1017.0 1017.0 0.0
05/07:30am 14.0 5.6 9.0 72 2.5 NNW 43 50 23 27 1017.2 1017.2 0.0
05/07:00am 14.0 6.4 9.0 72 2.5 NNW 39 46 21 25 1017.3 1017.3 0.0
05/06:30am 14.1 6.3 8.3 68 2.9 NNW 39 44 21 24 1017.3 1017.3 0.0
05/06:00am 14.2 6.5 8.6 69 2.8 NNW 39 48 21 26 1017.3 1017.3 0.0
05/05:30am 14.3 6.9 8.5 68 2.9 NNW 37 46 20 25 1017.2 1017.2 0.0
05/05:00am 14.4 8.1 9.6 73 2.5 NNW 33 39 18 21 1017.4 1017.4 0.0
05/04:30am 14.5 7.8 9.5 72 2.6 NNW 35 43 19 23 1017.2 1017.2 0.0
05/04:00am 14.4 8.0 9.4 72 2.6 NNW 33 41 18 22 1017.3 1017.3 0.0
05/03:30am 14.6 8.4 10.0 74 2.4 NNW 33 39 18 21 1017.6 1017.6 0.0
05/03:00am 14.7 8.4 9.7 72 2.6 NNW 33 39 18 21 1017.9 1017.9 0.0
05/02:30am 14.6 8.6 10.0 74 2.4 NNW 32 37 17 20 1018.2 1018.2 0.0
05/02:00am 14.6 8.7 10.4 76 2.2 NNW 32 37 17 20 1018.2 1018.2 0.0
05/01:30am 14.6 8.6 10.2 75 2.3 NNW 32 37 17 20 1018.3 1018.3 0.0
05/01:00am 14.7 8.5 10.1 74 2.4 NW 33 39 18 21 1018.4 1018.4 0.0
05/12:30am 14.7 8.7 10.7 77 2.1 NNW 33 39 18 21 1018.7 1018.7 0.0
05/12:00am 14.6 8.7 11.0 79 1.9 NNW 33 39 18 21 1018.9 1018.9 0.0
 
Date/Time
CST
Temp
°C
App
Temp
°C
Dew
Point
Rel
Hum
%
Delta-T
°C
Wind Press
QNH
hPa
Press
MSL
hPa
Rain
since 9 am
mm
Dir
 
Spd
km/h
Gust
km/h
Spd
kts
Gust
kts
04/11:30pm 14.7 8.7 10.9 78 2.0 NNW 33 39 18 21 1019.0 1019.0 0.0
04/11:00pm 14.8 9.0 11.6 81 1.7 NNW 33 39 18 21 1019.2 1019.2 0.0
04/10:30pm 14.6 9.1 11.9 84 1.5 NNW 32 37 17 20 1019.4 1019.4 0.0
04/10:00pm 14.5 9.1 12.2 86 1.2 NNW 32 37 17 20 1019.6 1019.6 0.0
04/09:30pm 14.6 9.3 12.5 87 1.1 NNW 32 35 17 19 1019.7 1019.7 0.0
04/09:00pm 14.6 9.7 12.5 87 1.1 NNW 30 35 16 19 1019.9 1019.9 0.0
04/08:30pm 14.7 9.8 12.7 88 1.1 NNW 30 33 16 18 1019.8 1019.8 0.0
04/08:00pm 14.9 10.1 12.8 87 1.2 NNW 30 35 16 19 1019.8 1019.8 0.0
04/07:30pm 15.1 10.3 12.8 86 1.3 NW 30 35 16 19 1020.0 1020.0 0.0
04/07:00pm 15.1 9.9 12.8 86 1.3 NW 32 35 17 19 1020.1 1020.1 0.0
04/06:30pm 15.2 10.8 12.9 86 1.3 NW 28 33 15 18 1020.1 1020.1 0.0
04/06:00pm 15.2 10.7 12.7 85 1.4 NW 28 32 15 17 1019.8 1019.8 0.0
04/05:30pm 15.3 11.0 12.2 82 1.7 NW 26 32 14 17 1020.0 1020.0 0.0
04/05:00pm 15.6 11.3 12.2 80 1.9 WNW 26 33 14 18 1020.2 1020.2 0.0
04/04:30pm 16.0 12.4 12.0 77 2.2 WNW 22 28 12 15 1020.2 1020.2 0.0
04/04:00pm 16.2 12.9 11.6 74 2.5 WNW 20 24 11 13 1020.1 1020.1 0.0
04/03:30pm 16.6 13.7 11.1 70 2.9 WNW 17 20 9 11 1020.2 1020.2 0.0
04/03:00pm 17.0 13.6 10.6 66 3.4 NW 19 22 10 12 1020.0 1020.0 0.0
04/02:30pm 17.4 13.9 10.3 63 3.8 NW 19 20 10 11 1020.1 1020.1 0.0
04/02:00pm 17.4 14.5 11.0 66 3.5 NNW 17 20 9 11 1020.2 1020.2 0.0
04/01:30pm 17.1 13.4 10.0 63 3.7 NNW 20 24 11 13 1020.6 1020.6 0.0
04/01:00pm 17.0 13.7 9.7 62 3.8 NNW 17 20 9 11 1021.1 1021.1 0.0
04/12:30pm 17.3 14.1 10.0 62 3.8 N 17 20 9 11 1021.5 1021.5 0.0
04/12:00pm 16.8 12.8 9.2 61 3.9 N 20 24 11 13 1021.8 1021.8 0.0
04/11:30am 16.9 12.5 9.1 60 4.0 N 22 26 12 14 1022.3 1022.3 0.0
04/11:00am 15.7 10.7 8.0 60 3.9 N 24 28 13 15 1022.8 1022.8 0.0
04/10:30am 15.4 11.2 8.4 63 3.5 N 20 24 11 13 1023.0 1023.0 0.0
04/10:00am 15.5 11.7 9.2 66 3.2 NNW 19 22 10 12 1023.0 1023.0 0.0
04/09:30am 14.9 10.9 9.1 68 3.0 NNW 20 24 11 13 1023.0 1023.0 0.0
04/09:00am 14.1 9.7 9.1 72 2.5 N 22 26 12 14 1022.8 1022.8 0.0
04/08:30am 14.1 10.3 9.9 76 2.2 N 20 24 11 13 1022.7 1022.7 0.0
04/08:00am 13.8 9.9 9.5 75 2.2 N 20 24 11 13 1022.7 1022.7 0.0
04/07:30am 13.9 10.3 10.5 80 1.8 N 20 24 11 13 1022.5 1022.5 0.0
04/07:00am 14.0 10.0 10.6 80 1.8 N 22 26 12 14 1022.1 1022.1 0.0
04/06:30am 13.9 10.0 10.9 82 1.6 N 22 26 12 14 1022.0 1022.0 0.0
04/06:00am 13.7 10.3 11.2 85 1.3 N 20 24 11 13 1021.9 1021.9 0.0
04/05:30am 13.7 11.0 11.6 87 1.1 N 17 20 9 11 1022.0 1022.0 0.0
04/05:00am 13.9 10.8 11.6 86 1.2 N 19 20 10 11 1022.1 1022.1 0.0
04/04:30am 13.9 11.6 11.8 87 1.1 N 15 19 8 10 1022.1 1022.1 0.0
04/04:00am 13.5 11.1 11.4 87 1.1 N 15 17 8 9 1022.2 1022.2 0.0
04/03:30am 13.6 10.8 11.3 86 1.2 N 17 20 9 11 1022.4 1022.4 0.0
04/03:00am 13.6 10.8 11.5 87 1.1 N 17 20 9 11 1022.4 1022.4 0.0
04/02:30am 13.7 11.0 11.6 87 1.1 N 17 20 9 11 1022.6 1022.6 0.0
04/02:00am 13.8 10.5 11.7 87 1.1 N 20 24 11 13 1022.8 1022.8 0.0
04/01:30am 13.7 10.4 11.6 87 1.1 N 20 24 11 13 1022.8 1022.8 0.0
04/01:00am 13.8 10.2 11.7 87 1.1 N 22 26 12 14 1022.9 1022.9 0.0
04/12:30am 13.8 9.8 11.7 87 1.1 N 24 28 13 15 1023.3 1023.3 0.0
04/12:00am 13.9 10.3 11.8 87 1.1 N 22 26 12 14 1023.3 1023.3 0.0
 
Date/Time
CST
Temp
°C
App
Temp
°C
Dew
Point
Rel
Hum
%
Delta-T
°C
Wind Press
QNH
hPa
Press
MSL
hPa
Rain
since 9 am
mm
Dir
 
Spd
km/h
Gust
km/h
Spd
kts
Gust
kts
03/11:30pm 13.9 9.8 11.4 85 1.3 N 24 28 13 15 1023.6 1023.6 0.0
03/11:00pm 13.9 10.1 11.2 84 1.4 N 22 28 12 15 1023.8 1023.8 0.0
03/10:30pm 14.1 10.4 11.4 84 1.4 N 22 28 12 15 1024.0 1024.0 0.0
03/10:00pm 14.2 10.8 11.4 83 1.5 N 20 26 11 14 1024.2 1024.2 0.0
03/09:30pm 14.2 10.5 11.5 84 1.4 N 22 26 12 14 1024.2 1024.2 0.0
03/09:00pm 14.3 11.2 11.5 83 1.5 N 19 20 10 11 1024.3 1024.3 0.0
03/08:30pm 14.2 11.4 11.4 83 1.5 N 17 20 9 11 1024.4 1024.4 0.0
03/08:00pm 14.3 10.9 11.1 81 1.7 N 20 24 11 13 1024.4 1024.4 0.0
03/07:30pm 14.3 11.7 10.7 79 1.9 N 15 17 8 9 1024.5 1024.5 0.0
03/07:00pm 14.3 11.7 10.7 79 1.9 N 15 19 8 10 1024.5 1024.5 0.0
03/06:30pm 14.2 11.9 10.4 78 2.0 N 13 17 7 9 1024.4 1024.4 0.0
03/06:00pm 14.4 11.8 10.6 78 2.0 N 15 17 8 9 1024.3 1024.3 0.0
03/05:30pm 14.3 11.6 10.3 77 2.1 N 15 17 8 9 1024.4 1024.4 0.0
03/05:00pm 14.4 12.0 10.2 76 2.2 NNW 13 17 7 9 1024.4 1024.4 0.0
03/04:30pm 14.5 11.7 10.1 75 2.3 NW 15 17 8 9 1024.5 1024.5 0.0
03/04:00pm 14.5 11.3 9.9 74 2.4 NW 17 20 9 11 1024.7 1024.7 0.0
03/03:30pm 14.4 11.3 9.0 70 2.7 NW 15 19 8 10 1024.5 1024.5 0.0
03/03:00pm 14.4 10.4 9.0 70 2.7 NNW 20 26 11 14 1024.7 1024.7 0.0
03/02:30pm 14.4 10.4 9.0 70 2.7 NW 20 26 11 14 1024.9 1024.9 0.0
03/02:00pm 14.6 10.4 8.3 66 3.2 NNW 20 26 11 14 1025.2 1025.2 0.0
03/01:30pm 14.3 10.4 9.5 73 2.5 NNW 20 26 11 14 1025.4 1025.4 0.0
03/01:00pm 14.2 10.9 9.6 74 2.4 NNW 17 20 9 11 1025.8 1025.8 0.0
03/12:30pm 14.3 10.7 9.9 75 2.3 NNW 19 22 10 12 1026.2 1026.2 0.0
03/12:00pm 14.4 10.4 9.0 70 2.7 NNW 20 24 11 13 1027.0 1027.0 0.0
03/11:30am 14.1 10.3 9.1 72 2.5 N 19 24 10 13 1027.4 1027.4 0.0
03/11:00am 14.0 9.3 9.2 73 2.4 N 24 32 13 17 1027.5 1027.5 0.0
03/10:30am 14.1 9.7 9.1 72 2.5 NNE 22 26 12 14 1027.5 1027.5 0.0
03/10:00am 13.7 9.5 7.5 66 3.0 NNE 19 20 10 11 1027.5 1027.5 0.0
03/09:30am 13.7 9.6 7.7 67 2.9 NNE 19 22 10 12 1027.5 1027.5 0.0
03/09:00am 13.6 9.7 6.9 64 3.2 NE 17 24 9 13 1027.4 1027.4 0.0
03/08:30am 13.3 9.7 6.6 64 3.2 NNE 15 17 8 9 1027.5 1027.5 0.0
03/08:00am 13.1 9.8 6.2 63 3.3 NNE 13 17 7 9 1027.2 1027.2 0.0
03/07:30am 13.0 9.6 6.1 63 3.2 NE 13 15 7 8 1027.0 1027.0 0.0
03/07:00am 12.8 9.8 5.9 63 3.3 NNE 11 15 6 8 1026.8 1026.8 0.0
03/06:30am 12.8 10.5 5.9 63 3.2 WNW 7 11 4 6 1027.3 1027.3 0.0
03/06:00am 13.0 12.1 6.1 63 3.2 CALM 0 6 0 3 1027.1 1027.1 0.0
03/05:30am 12.9 10.3 6.3 64 3.1 N 9 11 5 6 1027.3 1027.3 0.0
03/05:00am 13.1 9.2 5.5 60 3.6 NNW 15 19 8 10 1027.2 1027.2 0.0
03/04:30am 13.0 9.6 5.9 62 3.3 NNW 13 20 7 11 1027.4 1027.4 0.0
03/04:00am 13.1 10.3 6.9 66 3.0 W 11 13 6 7 1027.7 1027.7 0.0
03/03:30am 12.9 10.3 6.0 63 3.2 SW 9 13 5 7 1028.0 1028.0 0.0
03/03:00am 13.0 9.6 6.1 63 3.2 WSW 13 15 7 8 1028.5 1028.5 0.0
03/02:30am 12.7 10.7 6.3 65 3.0 WNW 6 11 3 6 1028.6 1028.6 0.0
03/02:00am 12.3 10.0 5.9 65 3.0 N 7 9 4 5 1028.6 1028.6 0.0
03/01:30am 12.3 10.2 5.9 65 3.0 N 6 9 3 5 1028.5 1028.5 0.0
03/01:00am 12.2 10.0 5.4 63 3.2 N 6 9 3 5 1028.7 1028.7 0.0
03/12:30am 12.4 10.1 5.6 63 3.1 NNW 7 11 4 6 1028.9 1028.9 0.0
03/12:00am 12.7 10.0 5.8 63 3.2 WNW 9 13 5 7 1029.2 1029.2 0.0
 
Date/Time
CST
Temp
°C
App
Temp
°C
Dew
Point
Rel
Hum
%
Delta-T
°C
Wind Press
QNH
hPa
Press
MSL
hPa
Rain
since 9 am
mm
Dir
 
Spd
km/h
Gust
km/h
Spd
kts
Gust
kts
02/11:30pm 12.9 10.3 6.0 63 3.2 W 9 17 5 9 1029.5 1029.5 0.0
02/11:00pm 12.6 10.1 6.4 66 2.9 WNW 9 13 5 7 1029.7 1029.7 0.0
02/10:30pm 12.7 10.3 7.0 68 2.7 W 9 13 5 7 1029.8 1029.8 0.0
02/10:00pm 12.4 10.3 6.0 65 3.0 SW 6 7 3 4 1029.7 1029.7 0.0
02/09:30pm 12.3 10.0 5.9 65 3.0 SSW 7 11 4 6 1029.7 1029.7 0.0
02/09:00pm 12.5 9.9 5.9 64 3.1 SW 9 13 5 7 1029.9 1029.9 0.0
02/08:30pm 12.8 10.3 6.6 66 2.9 S 9 13 5 7 1030.2 1030.2 0.0
02/08:00pm 12.7 10.6 6.5 66 3.0 S 7 13 4 7 1030.2 1030.2 0.0
02/07:30pm 12.3 11.0 6.1 66 2.9 SE 2 7 1 4 1029.7 1029.7 0.0
02/07:00pm 12.4 9.8 6.0 65 3.0 S 9 13 5 7 1029.5 1029.5 0.0

Other Formats:

Comma delimited format used in spreadsheet applications
http://www.bom.gov.au/fwo/IDS60801/IDS60801.94804.axf

JavaScript Object Notation format (JSON) in row-major order
http://www.bom.gov.au/fwo/IDS60801/IDS60801.94804.json